NWS Home NWS Lubbock West Texas Mesonet Latest Conditions as of 1012 AM, Sat Nov 22, 2014

Latest   N   C   S   Daily Sum   3hrΔ   24hrΔ   Soil Data 
Site Map   24hr Precip   72hr Precip   Google Plot


Station Time of Last Temp Dew Pt. RH Wind Direction Wind Speed Wind Gust Max Wind Max Temp Min Temp Max RH Min RH Altimeter 1HR Rain Today's Rain Solar Rad
Abernathy 5ENE  10:05 AM 51 47 90% W45 8 mph 287° @ 0705 AM 51 39 100 90 29.97" 0 0.00 85
Aiken 3WSW  10:05 AM 54 48 81% W710 10 mph 262° @ 1005 AM 54 39 100 81 29.96" 0 0.00 266
Amarillo 15NNW   10:05 AM 50 36 57% W57 17 mph 171° @ 1204 AM 50 39 90 57 29.94" 0 0.00 404
Amarillo 7SSE  10:06 AM 57 48 70% SW1418 18 mph 238° @ 0936 AM 57 36 93 70 29.95" 0 0.00 441
Amarillo 9NNE  10:05 AM 59 47 66% SW1316 20 mph 229° @ 0954 AM 59 38 93 66 29.93" 0 0.00 428
Amherst 1NE  10:05 AM 58 49 72% W1116 17 mph 249° @ 1000 AM 58 41 96 72 29.98" 0 0.00 417
Andrews 2E  07:20 AM 55 52 92% NW55 8 mph 75° @ 0635 AM 57 52 92 86 29.97" 0 0.00 0
Anton 6SSW  10:05 AM 56 49 80% W911 13 mph 279° @ 0935 AM 56 40 94 80 29.97" 0 0.00 335
Aspermont 3NE  10:05 AM 54 53 96% N513 13 mph 340° @ 1005 AM 55 48 96 84 29.99" 0.25 0.25 1
Big Bend NP - Persimmon Gap  10:06 AM 59 53 80% SE55 18 mph 20° @ 1203 AM 59 53 99 80 29.96" 0 0.00 402
Big Lake 1WNW  10:06 AM 65 60 83% S1823 24 mph 174° @ 0946 AM 65 60 96 83 29.94" 0 0.00 139
Bootleg 11WNW  10:06 AM 55 26 33% SW1316 17 mph 236° @ 0954 AM 55 35 97 33 29.99" 0 0.00 391
Brownfield 2S  10:05 AM 51 45 83% N79 10 mph 340° @ 0820 AM 51 47 95 81 29.97" 0 0.00 67
Canadian 6E  10:06 AM 49 48 99% E23 13 mph 119° @ 0726 AM 49 33 100 97 29.91" 0 0.00 418
Caprock Canyons State Park  10:06 AM 52 49 90% SW11 10 mph 172° @ 0828 AM 52 38 100 90 29.94" 0 0.00 200
Childress 2NNE  10:05 AM 48 48 100% NW12 12 mph 288° @ 0750 AM 48 40 100 98 29.95" 0 0.00 111
Clarendon 2WSW  10:05 AM 54 47 76% S1115 15 mph 196° @ 1005 AM 54 33 96 76 29.94" 0 0.00 344
Claude 12SW  10:06 AM 56 47 73% SW1215 20 mph 251° @ 0907 AM 56 39 94 73 29.95" 0 0.00 462
Coyanosa 2N  10:05 AM 57 51 80% W1112 17 mph 245° @ 0605 AM 57 48 97 79 29.95" 0 0.00 313
Denver City 7WNW  10:05 AM 57 49 78% NW913 13 mph 320° @ 1005 AM 57 45 87 78 29.95" 0 0.00 445
Dimmitt 2NE  10:05 AM 55 48 77% SW1721 22 mph 208° @ 0955 AM 55 41 93 68 29.98" 0 0.00 388
Dora NM 2SW  10:05 AM 55 45 70% SW1215 16 mph 235° @ 0950 AM 55 40 98 62 30.01" 0 0.00 354
Dozier 3W  10:05 AM 47 46 98% W22 10 mph 164° @ 0521 AM 47 35 100 94 29.96" 0 0.00 280
Floydada 2NNE  10:05 AM 52 48 88% W78 10 mph 145° @ 1245 AM 52 39 100 88 29.96" 0 0.00 72
Fluvanna 3WNW  10:05 AM 60 56 88% SW23 27 mph 117° @ 0840 AM 62 53 94 59 29.95" 0 0.02 255
Friona 2NE  10:05 AM 53 41 64% SW1316 18 mph 225° @ 0935 AM 53 40 95 59 29.98" 0 0.00 400
Gail 2ESE  10:05 AM 56 54 93% NW45 16 mph 322° @ 0830 AM 58 51 96 76 29.94" 0 0.12 47
Goodlett 3W  10:05 AM 49 47 96% W34 11 mph 326° @ 0400 AM 49 43 97 91 29.96" 0 0.00 24
Goodnight  10:06 AM 60 49 67% SW1619 26 mph 236° @ 0954 AM 60 35 99 67 29.95" 0 0.00 466
Graham 5SSW  10:05 AM 58 52 82% NW18 13 mph 126° @ 1000 AM 58 48 90 71 29.96" 0 0.00 71
Guadalupe Mtns Natl Park  10:05 AM 56 33 42% N69 23 mph 336° @ 0947 AM 56 43 98 33 30.05" 0 0.00 424
Guthrie 10WSW  10:00 AM 49 47 92% S02 9 mph 28° @ 0325 AM 50 45 96 91 29.93" 0 0.01 5
Hart 3N  10:05 AM 57 48 74% SW1316 16 mph 224° @ 1005 AM 57 36 95 74 29.97" 0 0.00 419
Haskell 1NW  10:05 AM 64 60 89% S814 14 mph 163° @ 1005 AM 65 58 99 85 29.94" 0 0.19 76
Hereford 2NW  10:05 AM 56 41 60% SW1417 19 mph 219° @ 0950 AM 56 39 90 60 29.96" 0 0.00 433
Hobbs NM 5NW  10:06 AM 57 51 81% NW68 13 mph 147° @ 1225 AM 57 50 91 80 29.99" 0 0.00 484
Jayton 1SSE  10:05 AM 50 49 97% SE810 14 mph 208° @ 0930 AM 51 48 97 89 29.92" 0.02 0.02 12
Junction 1SSW  10:05 AM 66 64 93% S1519 19 mph 185° @ 1005 AM 67 63 94 87 29.93" 0.04 0.09 186
Knox City 3NW  10:05 AM 53 50 90% N34 8 mph 336° @ 0815 AM 54 47 92 86 29.96" 0 0.19 22
Lake Alan Henry 1NW  10:06 AM 53 51 92% NW12 28 mph 259° @ 0915 AM 53 48 95 81 29.95" 0 0.08 78
Lamesa 2SE  10:05 AM 53 52 97% NW67 10 mph 300° @ 0940 AM 58 51 98 86 29.98" 0.04 0.04 6
Levelland 4S  10:05 AM 59 50 72% W710 11 mph 267° @ 0945 AM 59 41 89 72 29.97" 0 0.00 314
Lomax 1SSE  10:05 AM 60 59 97% NW89 13 mph 82° @ 0729 AM 60 55 98 87 29.95" 0 0.52 64
Lubbock 3WNW TTU  10:05 AM 51 44 79% NW12 9 mph 155° @ 1235 AM 51 43 93 74 29.97" 0 0.00 81
McLean 1E  10:05 AM 52 51 98% S1114 14 mph 189° @ 1000 AM 52 37 100 91 29.93" 0 0.00 456
Memphis 1NE  10:05 AM 46 45 100% W12 7 mph 311° @ 1250 AM 46 36 100 93 29.95" 0 0.00 88
Menard 2NW   10:05 AM 63 62 98% E79 20 mph 166° @ 0254 AM 65 62 98 87 29.95" 0.08 0.15 66
Mertzon 3NNE  10:06 AM 64 62 93% SE35 12 mph 137° @ 0437 AM 64 58 96 85 29.93" 0.02 0.06 61
Morton 1ENE  10:05 AM 59 48 69% W912 13 mph 262° @ 0955 AM 59 39 94 69 29.98" 0 0.00 398
Muleshoe 2SSW  10:05 AM 57 47 70% SW1215 19 mph 232° @ 0945 AM 57 36 92 70 29.99" 0 0.00 416
Northfield 1S  10:05 AM 46 46 100% S34 8 mph 317° @ 1215 AM 46 39 100 95 29.95" 0 0.00 179
O'Donnell 1N  10:05 AM 50 49 96% NW58 13 mph 306° @ 0945 AM 54 45 96 76 29.97" 0.40 0.40 3
Odell 4ENE  10:05 AM 51 51 100% W11 20 mph 265° @ 0651 AM 56 49 100 86 29.97" 0 1.06 23
Olton 6S  10:05 AM 56 48 75% W1013 13 mph 249° @ 1005 AM 56 40 92 75 29.97" 0 0.00 425
Paducah 10SW  10:05 AM 49 47 94% NW22 11 mph 318° @ 0145 AM 49 41 98 94 29.96" 0 0.00 27
Palo Duro Canyon State Park  10:06 AM 59 48 67% SW810 20 mph 226° @ 0947 AM 59 40 91 65 29.96" 0 0.00 449
Pampa 2E  10:05 AM 57 48 75% SW1419 20 mph 247° @ 1000 AM 57 40 96 75 29.92" 0 0.00 403
Plains 3N  10:05 AM 57 50 79% NW69 11 mph 298° @ 0845 AM 58 44 87 75 29.96" 0 0.00 116
Plainview 1S  10:05 AM 54 49 83% W913 13 mph 259° @ 1005 AM 54 40 100 83 29.95" 0 0.00 370
Post 1NE  10:05 AM 59 52 80% NE23 10 mph 314° @ 0930 AM 59 47 92 80 29.96" 0 0.00 218
Ralls 1SE  10:05 AM 54 50 86% NW711 11 mph 296° @ 1005 AM 54 44 98 86 29.97" 0 0.00 129
Reese Center  10:05 AM 53 46 80% N02 10 mph 159° @ 1205 AM 53 41 94 78 29.98" 0 0.00 95
Roaring Springs 3N  08:35 AM 47 47 99% SW67 7 mph 278° @ 0355 AM 48 43 100 94 29.97" 0 0.00 49
San Angelo 7NW  10:05 AM 66 59 81% SE1014 14 mph 114° @ 0850 AM 66 58 93 80 29.93" 0 0.00 37
Seagraves 1SW  10:05 AM 55 49 82% N1014 14 mph 5° @ 1005 AM 55 46 94 82 29.95" 0 0.00 214
Seminole 2NNE  10:05 AM 56 51 84% NE711 11 mph 25° @ 1005 AM 57 51 93 80 29.95" 0 0.00 164
Seymour 3NW  10:05 AM 56 54 94% NE12 25 mph 242° @ 0355 AM 63 55 94 88 29.96" 0 0.61 75
Silverton 7ESE  10:05 AM 56 50 80% W1417 18 mph 257° @ 0955 AM 56 41 99 80 29.94" 0 0.00 279
Slaton 2NE  10:05 AM 52 47 84% NW912 12 mph 298° @ 1005 AM 52 46 94 84 29.96" 0 0.00 67
Snyder 3E  10:05 AM 60 59 100% SE34 23 mph 227° @ 0840 AM 60 56 100 83 29.94" 0 0.68 183
Spur 1W  10:05 AM 52 49 93% NW67 13 mph 73° @ 0950 AM 52 44 95 89 29.93" 0 0.00 32
St. Lawrence 5SW  10:05 AM 64 59 87% S1114 19 mph 156° @ 0935 AM 64 54 100 87 29.93" 0 0.00 108
Sterling City 4WSW  10:06 AM 63 60 90% E56 16 mph 103° @ 0658 AM 63 59 97 81 29.94" 0 0.00 17
Sundown 8WSW  10:05 AM 59 50 74% SW813 13 mph 252° @ 1000 AM 60 44 88 72 29.97" 0 0.00 141
Sweetwater 11SW   10:05 AM 63 60 91% SE1112 25 mph 154° @ 0417 AM 63 58 97 85 29.93" 0 0.01 196
Tahoka 3NNE  10:05 AM 50 48 93% NW1011 13 mph 312° @ 0959 AM 51 43 93 79 29.96" 0.03 0.03 12
Tarzan 2WNW  10:05 AM 56 55 96% E1010 11 mph 65° @ 0651 AM 58 55 97 85 29.98" 0.13 0.14 15
Tatum NM 2SW  10:05 AM 58 48 71% NW69 9 mph 332° @ 0630 AM 58 38 92 71 29.98" 0 0.00 418
Tulia 2ENE  10:05 AM 58 50 77% SW1525 25 mph 242° @ 1005 AM 58 37 100 77 29.95" 0 0.00 403
Turkey 2WSW  10:05 AM 52 48 87% SW34 12 mph 315° @ 0435 AM 52 39 98 87 29.93" 0 0.00 194
Umbarger 3NNE  10:05 AM 56 47 71% SW1417 21 mph 225° @ 0942 AM 56 39 89 70 29.96" 0 0.00 476
Wall 1E  10:05 AM 67 59 77% SE58 19 mph 146° @ 0700 AM 67 58 90 77 29.93" 0 0.00 64
Weinert 2NNE  10:06 AM 55 53 94% NE45 15 mph 186° @ 0318 AM 61 53 97 93 29.96" 0 0.53 123
Wolfforth 6SSW  10:05 AM 51 46 84% E00 10 mph 323° @ 0655 AM 51 44 100 81 29.98" 0 0.00 69

West Texas Mesonet Home   Site Map/Menu  NWS Lubbock Soil Data  Daily Summary Page  24hr Precip  72hr Precip  Google Plot